Arlington, KS

8:39 AM CST on December 22, 2014 (GMT -0600)
Hutchinson Municipal | Change Station
CLOSE
Current Station
Airport
Location: Hutchinson,
Elevation: 1542 ft
Nearby Weather Stations

Elev 1542 ft 38.07 °N, 97.86 °W | Updated 15 minutes ago

Mostly Cloudy
Mostly Cloudy
45 °F
Feels Like 41 °F
N
8
Wind Variable Wind from WSW

Today
High -- | Low -- °F
--% Chance of Precip.
Yesterday
High -- | Low -- °F
Precip. -- in
7:45 AM 5:17 PM
New Moon, 0% visible
Pressure 29.56 in
Visibility 3.0 miles
Clouds Overcast 200 ft
Windchill 41 °F
Dew Point 43 °F
Humidity 93%
Rainfall 0.00 in
Snow Depth Not available.
UV 0 out of 12
Pollen .10 out of 12
Air Quality Not available.
Flu Activity Not available.
SPECI KHUT 221424Z 25007KT 3SM BR OVC002 07/06 A2956 RMK AO2 T00720061

More Conditions Fewer Conditions

Pressure 29.56 in
Visibility 3.0 miles
Clouds Overcast 200 ft
Windchill 41 °F
Dew Point 43 °F
Humidity 93%
Rainfall 0.00 in
Snow Depth Not available.
UV 0 out of 12
Pollen .10 out of 12
Air Quality Not available.
Flu Activity Not available.
SPECI KHUT 221424Z 25007KT 3SM BR OVC002 07/06 A2956 RMK AO2 T00720061

More Conditions Fewer Conditions

10-Day Weather Forecast

Almanac

Astronomy

Dec. 22, 2014 Rise Set
Actual Time
Civil Twilight
Nautical Twilight
Astronomical Twilight
Moon
Length of Visible Light
Length of Day
Tomorrow will be .
, % of the Moon is Illuminated

Today's Extremes

State Highs State Lows

Community

WunderPhotos

Upload Photos

1,779,608 photos uploaded!

WunderBlogs® & News

Nearby

Air Quality

  Air Quality AQ Index Pollutant
Not available.

Snow Depth

Station Depth Elevation

Earthquake Activity

City Distance Mag. Time & Date
Minimum magnitude displayed is 2.5.

Coastal Water Temperatures

Place Temperature

Nearby Weather Stations